Flight Track Log - Related Links

Times and Time Zones

All times are in EDT time to prevent confusion due to time zone crossing. See the CSN3364 flight status page for this flight to view local times or setup timezone preferences in your user account.

Time Position Orientation Groundspeed Altitude Reporting Facility
EDT Latitude Longitude Course Direction KTS MPH feet Rate Location/Type
Sun 11:34:00 PM 34.6164 112.3996 176° South  Level Estimated
Sun 11:35:00 PM 34.4917 112.4108 176° South  Level Estimated
Sun 11:36:00 PM 34.3670 112.4219 176° South  Level Estimated
Sun 11:37:00 PM 34.2423 112.4331 176° South  Level Estimated
Sun 11:38:00 PM 34.1176 112.4442 176° South  Level Estimated
Sun 11:39:00 PM 33.9929 112.4552 176° South  Level Estimated
Sun 11:40:00 PM 33.8682 112.4663 176° South  Level Estimated
Sun 11:41:00 PM 33.7435 112.4773 176° South  Level Estimated
Sun 11:42:00 PM 33.6188 112.4882 176° South  Level Estimated
Sun 11:43:00 PM 33.4941 112.4992 176° South  Level Estimated
Sun 11:44:00 PM 33.3694 112.5101 176° South  Level Estimated
Sun 11:45:00 PM 33.2447 112.5210 176° South  Level Estimated
Sun 11:46:00 PM 33.1200 112.5318 176° South  Level Estimated
Sun 11:47:00 PM 32.9953 112.5426 176° South  Level Estimated
Sun 11:48:00 PM 32.8706 112.5534 176° South  Level Estimated
Sun 11:49:00 PM 32.7459 112.5641 176° South  Level Estimated
Sun 11:50:00 PM 32.6212 112.5749 176° South  Level Estimated
Sun 11:51:00 PM 32.4965 112.5856 176° South  Level Estimated
Sun 11:52:00 PM 32.3718 112.5962 176° South  Level Estimated
Sun 11:53:00 PM 32.2471 112.6068 176° South  Level Estimated
Sun 11:54:00 PM 32.1223 112.6175 176° South  Level Estimated
Sun 11:55:00 PM 31.9976 112.6280 176° South  Level Estimated
Sun 11:56:00 PM 31.8729 112.6386 176° South  Level Estimated
Sun 11:57:00 PM 31.7482 112.6491 176° South  Level Estimated
Sun 11:58:00 PM 31.6235 112.6596 176° South  Level Estimated
Sun 11:59:00 PM 31.4988 112.6701 176° South  Level Estimated
Mon 12:00:00 AM 31.3740 112.6805 176° South  Level Estimated
Mon 12:01:00 AM 31.2493 112.6909 176° South  Level Estimated
Mon 12:02:00 AM 31.1246 112.7013 176° South  Level Estimated
Mon 12:03:00 AM 30.9999 112.7116 176° South  Level Estimated
Mon 12:04:00 AM 30.8752 112.7220 176° South  Level Estimated
Mon 12:05:00 AM 30.7504 112.7323 176° South  Level Estimated
Mon 12:06:00 AM 30.6257 112.7425 176° South  Level Estimated
Mon 12:07:00 AM 30.5010 112.7528 176° South  Level Estimated
Mon 12:08:00 AM 30.3763 112.7630 176° South  Level Estimated
Mon 12:09:00 AM 30.2516 112.7732 176° South  Level Estimated
Mon 12:10:00 AM 30.1268 112.7834 176° South  Level Estimated
Mon 12:11:00 AM 30.0021 112.7935 176° South  Level Estimated
Mon 12:12:00 AM 29.8774 112.8036 176° South  Level Estimated
Mon 12:13:00 AM 29.7526 112.8137 176° South  Level Estimated
Mon 12:14:00 AM 29.6279 112.8238 176° South  Level Estimated
Mon 12:15:00 AM 29.5032 112.8338 176° South  Level Estimated
Mon 12:16:00 AM 29.3784 112.8438 176° South  Level Estimated
Mon 12:17:00 AM 29.2537 112.8538 176° South  Level Estimated
Mon 12:18:00 AM 29.1290 112.8638 176° South  Level Estimated
Mon 12:19:00 AM 29.0042 112.8737 176° South  Level Estimated
Mon 12:20:00 AM 28.8795 112.8837 176° South  Level Estimated
Mon 12:21:00 AM 28.7548 112.8936 176° South  Level Estimated
Mon 12:22:00 AM 28.6301 112.9034 176° South  Level Estimated
Mon 12:23:00 AM 28.5053 112.9133 176° South  Level Estimated
Mon 12:24:00 AM 28.3806 112.9231 176° South  Level Estimated
Mon 12:25:00 AM 28.2558 112.9329 176° South  Level Estimated
Mon 12:26:00 AM 28.1311 112.9427 176° South  Level Estimated
Mon 12:27:00 AM 28.0064 112.9525 176° South  Level Estimated
Mon 12:28:00 AM 27.8816 112.9622 176° South  Level Estimated
Mon 12:29:00 AM 27.7569 112.9719 176° South  Level Estimated
Mon 12:30:00 AM 27.6321 112.9816 176° South  Level Estimated
Mon 12:31:00 AM 27.5074 112.9912 176° South  Level Estimated
Mon 12:32:00 AM 27.3827 113.0009 176° South  Level Estimated
Mon 12:33:00 AM 27.2579 113.0105 176° South  Level Estimated
Mon 12:34:00 AM 27.1332 113.0201 176° South  Level Estimated
Mon 12:35:00 AM 27.0084 113.0297 176° South  Level Estimated
Mon 12:36:00 AM 26.8837 113.0393 176° South  Level Estimated
Mon 12:37:00 AM 26.7589 113.0488 176° South  Level Estimated
Mon 12:38:00 AM 26.6342 113.0583 176° South  Level Estimated
Mon 12:39:00 AM 26.5095 113.0678 176° South  Level Estimated
Mon 12:40:00 AM 26.3847 113.0773 176° South  Level Estimated
Mon 12:41:00 AM 26.2600 113.0867 176° South  Level Estimated
Mon 12:42:00 AM 26.1352 113.0962 176° South  Level Estimated
Mon 12:43:00 AM 26.0105 113.1056 176° South  Level Estimated
Mon 12:44:00 AM 25.8857 113.1150 176° South  Level Estimated
Mon 12:45:00 AM 25.7610 113.1244 176° South  Level Estimated
Mon 12:46:00 AM 25.6362 113.1337 176° South  Level Estimated
Mon 12:47:00 AM 25.5114 113.1431 176° South  Level Estimated
Mon 12:48:00 AM 25.3867 113.1524 176° South  Level Estimated
Mon 12:49:00 AM 25.2619 113.1617 176° South  Level Estimated
Mon 12:50:00 AM 25.1372 113.1710 176° South  Level Estimated
Mon 12:51:00 AM 25.0124 113.1802 176° South  Level Estimated
Mon 12:52:00 AM 24.8877 113.1895 176° South  Level Estimated
Mon 12:53:00 AM 24.7630 113.1987 176° South  Level Estimated
Mon 12:54:00 AM 24.6382 113.2079 176° South  Level Estimated
Mon 12:55:00 AM 24.5134 113.2171 176° South  Level Estimated
Mon 12:55:59 AM 24.3490 113.7000 176° South 332 382 15,300  Level FlightAware ADS-B
Mon 12:56:00 AM 24.3887 113.2262 176° South  Level Estimated
Mon 12:56:57 AM 24.2890 113.6360 224° Southwest 325 374 14,200  Level FlightAware ADS-B
Mon 12:57:00 AM 24.2639 113.2354 176° South  Level Estimated
Mon 12:57:39 AM 24.2570 113.5740 240° Southwest 318 366 13,700  Level FlightAware ADS-B
Mon 12:58:23 AM 24.2230 113.5140 238° Southwest 302 348 13,100 -750 Descending FlightAware ADS-B
Mon 12:58:35 AM 24.2110 113.5050 214° Southwest 298 343 13,000 -667 Descending FlightAware ADS-B
Mon 12:59:17 AM 24.1670 113.4650 220° Southwest 284 327 12,500 -628 Descending FlightAware ADS-B
Mon 01:00:01 AM 24.1290 113.4170 229° Southwest 285 328 12,100 -643 Descending FlightAware ADS-B
Mon 01:00:41 AM 24.0790 113.3960 201° Southwest 289 333 11,600 -716 Descending FlightAware ADS-B
Mon 01:01:08 AM 24.0480 113.3800 205° Southwest 296 341 11,300 -930 Descending FlightAware ADS-B
Mon 01:01:52 AM 23.9870 113.3760 183° South 295 339 10,500 -1,315 Descending FlightAware ADS-B
Mon 01:02:21 AM 23.9470 113.3740 183° South 294 338 9,700 -1,684 Descending FlightAware ADS-B
Mon 01:02:49 AM 23.9080 113.3720 183° South 291 335 8,900 -1,615 Descending FlightAware ADS-B
Mon 01:03:13 AM 23.8770 113.3700 183° South 289 333 8,300 -1,588 Descending FlightAware ADS-B
Mon 01:03:57 AM 23.8180 113.3730 177° South 291 335 7,100 -1,622 Descending FlightAware ADS-B
Mon 01:04:27 AM 23.7770 113.3790 172° South 287 330 6,300 -1,448 Descending FlightAware ADS-B
Mon 01:04:55 AM 23.7410 113.3830 174° South 280 322 5,700 -1,071 Descending FlightAware ADS-B
Mon 01:05:23 AM 23.7060 113.3850 177° South 265 305 5,300 -794 Descending FlightAware ADS-B
Mon 01:06:03 AM 23.6590 113.3840 181° South 243 280 4,800 -750 Descending FlightAware ADS-B
Mon 01:06:19 AM 23.6410 113.3830 183° South 233 268 4,600 -818 Descending FlightAware ADS-B
Mon 01:06:47 AM 23.6130 113.3790 187° South 205 236 4,200 -857 Descending FlightAware ADS-B
Mon 01:07:15 AM 23.5910 113.3660 208° Southwest 185 213 3,800 -857 Descending FlightAware ADS-B
Mon 01:07:43 AM 23.5720 113.3510 216° Southwest 182 209 3,400 -632 Descending FlightAware ADS-B
Mon 01:08:12 AM 23.5540 113.3340 221° Southwest 170 196 3,200 -600 Descending FlightAware ADS-B
Mon 01:08:23 AM 23.5460 113.3290 210° Southwest 173 199 3,000 -1,077 Descending FlightAware ADS-B
Mon 01:08:51 AM 23.5250 113.3240 192° South 157 181 2,500 -517 Descending FlightAware ADS-B
Mon 01:09:21 AM 23.5080 113.3200 192° South 156 180 2,500  Level FlightAware ADS-B
Mon 01:11:00 AM 23.3924 113.2988 190° South  Level Estimated
Mon 01:12:00 AM 23.3924 113.2988 223° Southwest  Level Estimated
Mon 01:13:00 AM 23.3924 113.2988 223° Southwest  Level Estimated
Mon 01:14:00 AM 23.3924 113.2988 223° Southwest  Level Estimated
Mon 01:15:00 AM 23.3924 113.2988 223° Southwest  Level Estimated
Mon 01:16:00 AM 23.3924 113.2988 223° Southwest  Level Estimated
Mon 01:17:00 AM 23.3924 113.2988 223° Southwest  Level Estimated
Mon 01:18:00 AM 23.3924 113.2988 223° Southwest  Level Estimated
Mon 01:19:00 AM 23.3924 113.2988 223° Southwest  Level Estimated
Mon 01:20:00 AM 23.3924 113.2988 223° Southwest  Level Estimated

Login

Don't have an account? Register now (free) for customized features, flight alerts, and more!